sensor_id;sensor_type;location;lat;lon;timestamp;P1;durP1;ratioP1;P2;durP2;ratioP2
81154;SDS011;70631;50.436;7.826;2024-03-02T00:00:08;7.45;;;3.92;;
81154;SDS011;70631;50.436;7.826;2024-03-02T00:02:40;6.22;;;3.78;;
81154;SDS011;70631;50.436;7.826;2024-03-02T00:05:06;8.68;;;3.65;;
81154;SDS011;70631;50.436;7.826;2024-03-02T00:07:31;11.43;;;4.22;;
81154;SDS011;70631;50.436;7.826;2024-03-02T00:09:57;7.60;;;4.17;;
81154;SDS011;70631;50.436;7.826;2024-03-02T00:14:47;5.03;;;3.73;;
81154;SDS011;70631;50.436;7.826;2024-03-02T00:17:16;7.30;;;3.47;;
81154;SDS011;70631;50.436;7.826;2024-03-02T00:19:46;6.07;;;3.92;;
81154;SDS011;70631;50.436;7.826;2024-03-02T00:22:11;5.50;;;3.90;;
81154;SDS011;70631;50.436;7.826;2024-03-02T00:24:37;6.22;;;4.60;;
81154;SDS011;70631;50.436;7.826;2024-03-02T00:27:03;6.30;;;4.40;;
81154;SDS011;70631;50.436;7.826;2024-03-02T00:29:30;8.35;;;4.05;;
81154;SDS011;70631;50.436;7.826;2024-03-02T00:31:55;6.03;;;3.88;;
81154;SDS011;70631;50.436;7.826;2024-03-02T00:34:20;6.70;;;4.83;;
81154;SDS011;70631;50.436;7.826;2024-03-02T00:36:46;7.88;;;4.45;;
81154;SDS011;70631;50.436;7.826;2024-03-02T00:39:12;8.27;;;4.82;;
81154;SDS011;70631;50.436;7.826;2024-03-02T00:41:41;8.10;;;5.40;;
81154;SDS011;70631;50.436;7.826;2024-03-02T00:44:07;9.80;;;6.50;;
81154;SDS011;70631;50.436;7.826;2024-03-02T00:46:37;10.88;;;6.85;;
81154;SDS011;70631;50.436;7.826;2024-03-02T00:49:04;11.73;;;7.20;;
81154;SDS011;70631;50.436;7.826;2024-03-02T00:51:31;9.85;;;6.80;;
81154;SDS011;70631;50.436;7.826;2024-03-02T00:53:58;11.73;;;7.68;;
81154;SDS011;70631;50.436;7.826;2024-03-02T00:56:25;12.40;;;8.35;;
81154;SDS011;70631;50.436;7.826;2024-03-02T00:58:51;12.77;;;8.90;;
81154;SDS011;70631;50.436;7.826;2024-03-02T01:01:16;12.30;;;8.13;;
81154;SDS011;70631;50.436;7.826;2024-03-02T01:03:42;10.93;;;7.53;;
81154;SDS011;70631;50.436;7.826;2024-03-02T01:06:08;14.63;;;8.45;;
81154;SDS011;70631;50.436;7.826;2024-03-02T01:08:34;12.43;;;8.07;;
81154;SDS011;70631;50.436;7.826;2024-03-02T01:11:01;13.48;;;8.98;;
81154;SDS011;70631;50.436;7.826;2024-03-02T01:13:26;14.27;;;9.52;;
81154;SDS011;70631;50.436;7.826;2024-03-02T01:15:52;13.30;;;8.77;;
81154;SDS011;70631;50.436;7.826;2024-03-02T01:18:18;14.15;;;9.82;;
81154;SDS011;70631;50.436;7.826;2024-03-02T01:20:43;16.55;;;9.90;;
81154;SDS011;70631;50.436;7.826;2024-03-02T01:23:09;14.13;;;9.80;;
81154;SDS011;70631;50.436;7.826;2024-03-02T01:25:34;16.85;;;9.95;;
81154;SDS011;70631;50.436;7.826;2024-03-02T01:28:00;13.63;;;9.10;;
81154;SDS011;70631;50.436;7.826;2024-03-02T01:30:26;14.43;;;9.18;;
81154;SDS011;70631;50.436;7.826;2024-03-02T01:32:51;15.70;;;9.77;;
81154;SDS011;70631;50.436;7.826;2024-03-02T01:35:16;16.97;;;10.03;;
81154;SDS011;70631;50.436;7.826;2024-03-02T01:37:41;14.73;;;8.83;;
81154;SDS011;70631;50.436;7.826;2024-03-02T01:40:07;19.47;;;12.00;;
81154;SDS011;70631;50.436;7.826;2024-03-02T01:42:37;15.55;;;10.20;;
81154;SDS011;70631;50.436;7.826;2024-03-02T01:45:07;17.90;;;11.15;;
81154;SDS011;70631;50.436;7.826;2024-03-02T01:47:34;20.67;;;11.93;;
81154;SDS011;70631;50.436;7.826;2024-03-02T01:50:00;18.23;;;10.70;;
81154;SDS011;70631;50.436;7.826;2024-03-02T01:52:26;17.15;;;11.65;;
81154;SDS011;70631;50.436;7.826;2024-03-02T01:54:51;19.77;;;11.30;;
81154;SDS011;70631;50.436;7.826;2024-03-02T01:57:17;17.77;;;11.37;;
81154;SDS011;70631;50.436;7.826;2024-03-02T01:59:42;19.88;;;10.48;;
81154;SDS011;70631;50.436;7.826;2024-03-02T02:02:08;18.10;;;10.00;;
81154;SDS011;70631;50.436;7.826;2024-03-02T02:04:33;20.83;;;12.20;;
81154;SDS011;70631;50.436;7.826;2024-03-02T02:06:59;18.83;;;10.40;;
81154;SDS011;70631;50.436;7.826;2024-03-02T02:09:25;22.52;;;11.63;;
81154;SDS011;70631;50.436;7.826;2024-03-02T02:11:50;18.35;;;11.10;;
81154;SDS011;70631;50.436;7.826;2024-03-02T02:14:16;19.73;;;11.05;;
81154;SDS011;70631;50.436;7.826;2024-03-02T02:16:42;18.70;;;11.65;;
81154;SDS011;70631;50.436;7.826;2024-03-02T02:19:07;20.47;;;11.17;;
81154;SDS011;70631;50.436;7.826;2024-03-02T02:21:33;18.52;;;10.77;;
81154;SDS011;70631;50.436;7.826;2024-03-02T02:23:58;19.83;;;11.15;;
81154;SDS011;70631;50.436;7.826;2024-03-02T02:26:23;18.45;;;11.60;;
81154;SDS011;70631;50.436;7.826;2024-03-02T02:28:49;20.40;;;11.63;;
81154;SDS011;70631;50.436;7.826;2024-03-02T02:31:15;20.05;;;12.43;;
81154;SDS011;70631;50.436;7.826;2024-03-02T02:33:40;21.58;;;11.90;;
81154;SDS011;70631;50.436;7.826;2024-03-02T02:36:06;17.80;;;11.75;;
81154;SDS011;70631;50.436;7.826;2024-03-02T02:38:35;20.60;;;12.05;;
81154;SDS011;70631;50.436;7.826;2024-03-02T02:41:03;19.55;;;11.75;;
81154;SDS011;70631;50.436;7.826;2024-03-02T02:43:28;21.38;;;12.40;;
81154;SDS011;70631;50.436;7.826;2024-03-02T02:45:53;18.40;;;11.37;;
81154;SDS011;70631;50.436;7.826;2024-03-02T02:48:19;19.07;;;10.77;;
81154;SDS011;70631;50.436;7.826;2024-03-02T02:50:44;20.40;;;10.70;;
81154;SDS011;70631;50.436;7.826;2024-03-02T02:53:09;19.50;;;11.77;;
81154;SDS011;70631;50.436;7.826;2024-03-02T02:55:35;18.30;;;10.63;;
81154;SDS011;70631;50.436;7.826;2024-03-02T02:58:05;25.85;;;11.88;;
81154;SDS011;70631;50.436;7.826;2024-03-02T03:00:31;19.90;;;11.10;;
81154;SDS011;70631;50.436;7.826;2024-03-02T03:02:56;19.63;;;11.73;;
81154;SDS011;70631;50.436;7.826;2024-03-02T03:05:21;18.73;;;11.17;;
81154;SDS011;70631;50.436;7.826;2024-03-02T03:07:46;20.53;;;11.07;;
81154;SDS011;70631;50.436;7.826;2024-03-02T03:10:14;16.65;;;10.02;;
81154;SDS011;70631;50.436;7.826;2024-03-02T03:12:40;18.98;;;10.27;;
81154;SDS011;70631;50.436;7.826;2024-03-02T03:15:07;17.05;;;10.52;;
81154;SDS011;70631;50.436;7.826;2024-03-02T03:17:33;18.67;;;9.88;;
81154;SDS011;70631;50.436;7.826;2024-03-02T03:19:59;18.77;;;10.88;;
81154;SDS011;70631;50.436;7.826;2024-03-02T03:22:26;17.88;;;10.30;;
81154;SDS011;70631;50.436;7.826;2024-03-02T03:24:52;18.05;;;10.25;;
81154;SDS011;70631;50.436;7.826;2024-03-02T03:27:18;17.55;;;9.77;;
81154;SDS011;70631;50.436;7.826;2024-03-02T03:29:44;16.08;;;10.10;;
81154;SDS011;70631;50.436;7.826;2024-03-02T03:32:10;17.90;;;10.20;;
81154;SDS011;70631;50.436;7.826;2024-03-02T03:34:35;20.50;;;11.77;;
81154;SDS011;70631;50.436;7.826;2024-03-02T03:37:00;20.60;;;10.37;;
81154;SDS011;70631;50.436;7.826;2024-03-02T03:41:50;19.53;;;10.70;;
81154;SDS011;70631;50.436;7.826;2024-03-02T03:44:16;21.10;;;9.63;;
81154;SDS011;70631;50.436;7.826;2024-03-02T03:49:06;19.17;;;9.17;;
81154;SDS011;70631;50.436;7.826;2024-03-02T03:51:32;16.73;;;9.50;;
81154;SDS011;70631;50.436;7.826;2024-03-02T03:53:58;16.45;;;8.82;;
81154;SDS011;70631;50.436;7.826;2024-03-02T03:56:23;13.30;;;8.65;;
81154;SDS011;70631;50.436;7.826;2024-03-02T03:58:49;15.43;;;8.83;;
81154;SDS011;70631;50.436;7.826;2024-03-02T04:01:14;17.37;;;9.67;;
81154;SDS011;70631;50.436;7.826;2024-03-02T04:03:39;17.85;;;9.55;;
81154;SDS011;70631;50.436;7.826;2024-03-02T04:06:04;18.30;;;10.87;;
81154;SDS011;70631;50.436;7.826;2024-03-02T04:08:30;16.50;;;10.40;;
81154;SDS011;70631;50.436;7.826;2024-03-02T04:10:55;21.03;;;11.93;;
81154;SDS011;70631;50.436;7.826;2024-03-02T04:13:20;19.50;;;12.02;;
81154;SDS011;70631;50.436;7.826;2024-03-02T04:15:46;17.53;;;10.50;;
81154;SDS011;70631;50.436;7.826;2024-03-02T04:18:11;19.57;;;11.97;;
81154;SDS011;70631;50.436;7.826;2024-03-02T04:20:36;20.70;;;11.20;;
81154;SDS011;70631;50.436;7.826;2024-03-02T04:23:02;17.97;;;10.40;;
81154;SDS011;70631;50.436;7.826;2024-03-02T04:25:27;16.23;;;9.13;;
81154;SDS011;70631;50.436;7.826;2024-03-02T04:27:53;16.07;;;9.13;;
81154;SDS011;70631;50.436;7.826;2024-03-02T04:30:18;14.37;;;8.53;;
81154;SDS011;70631;50.436;7.826;2024-03-02T04:35:11;15.38;;;9.13;;
81154;SDS011;70631;50.436;7.826;2024-03-02T04:37:37;14.75;;;8.20;;
81154;SDS011;70631;50.436;7.826;2024-03-02T04:40:03;15.35;;;9.05;;
81154;SDS011;70631;50.436;7.826;2024-03-02T04:42:28;13.68;;;7.93;;
81154;SDS011;70631;50.436;7.826;2024-03-02T04:44:54;12.47;;;8.33;;
81154;SDS011;70631;50.436;7.826;2024-03-02T04:49:44;16.57;;;9.07;;
81154;SDS011;70631;50.436;7.826;2024-03-02T04:54:35;15.57;;;8.67;;
81154;SDS011;70631;50.436;7.826;2024-03-02T04:57:20;16.75;;;9.00;;
81154;SDS011;70631;50.436;7.826;2024-03-02T04:59:45;13.83;;;8.30;;
81154;SDS011;70631;50.436;7.826;2024-03-02T05:04:37;13.45;;;7.75;;
81154;SDS011;70631;50.436;7.826;2024-03-02T05:07:03;15.85;;;7.88;;
81154;SDS011;70631;50.436;7.826;2024-03-02T05:09:31;16.58;;;7.97;;
81154;SDS011;70631;50.436;7.826;2024-03-02T05:11:56;14.70;;;8.00;;
81154;SDS011;70631;50.436;7.826;2024-03-02T05:14:45;14.18;;;7.95;;
81154;SDS011;70631;50.436;7.826;2024-03-02T05:17:10;19.02;;;8.90;;
81154;SDS011;70631;50.436;7.826;2024-03-02T05:19:36;11.40;;;6.77;;
81154;SDS011;70631;50.436;7.826;2024-03-02T05:24:26;12.07;;;7.10;;
81154;SDS011;70631;50.436;7.826;2024-03-02T05:26:52;14.02;;;8.48;;
81154;SDS011;70631;50.436;7.826;2024-03-02T05:29:18;11.55;;;6.65;;
81154;SDS011;70631;50.436;7.826;2024-03-02T05:34:09;9.48;;;5.72;;
81154;SDS011;70631;50.436;7.826;2024-03-02T05:36:34;15.57;;;8.07;;
81154;SDS011;70631;50.436;7.826;2024-03-02T05:41:24;11.13;;;7.07;;
81154;SDS011;70631;50.436;7.826;2024-03-02T05:46:15;16.10;;;7.33;;
81154;SDS011;70631;50.436;7.826;2024-03-02T05:51:06;12.80;;;8.37;;
81154;SDS011;70631;50.436;7.826;2024-03-02T05:55:56;16.20;;;9.57;;
81154;SDS011;70631;50.436;7.826;2024-03-02T06:01:07;17.30;;;9.88;;
81154;SDS011;70631;50.436;7.826;2024-03-02T06:03:32;17.23;;;10.17;;
81154;SDS011;70631;50.436;7.826;2024-03-02T06:08:23;17.73;;;9.67;;
81154;SDS011;70631;50.436;7.826;2024-03-02T06:10:48;18.73;;;9.63;;
81154;SDS011;70631;50.436;7.826;2024-03-02T06:13:14;18.25;;;10.15;;
81154;SDS011;70631;50.436;7.826;2024-03-02T06:15:39;19.43;;;10.30;;
81154;SDS011;70631;50.436;7.826;2024-03-02T06:20:31;20.02;;;10.10;;
81154;SDS011;70631;50.436;7.826;2024-03-02T06:22:56;17.67;;;10.40;;
81154;SDS011;70631;50.436;7.826;2024-03-02T06:27:47;19.93;;;10.37;;
81154;SDS011;70631;50.436;7.826;2024-03-02T06:30:12;19.67;;;11.83;;
81154;SDS011;70631;50.436;7.826;2024-03-02T06:35:03;16.70;;;10.13;;
81154;SDS011;70631;50.436;7.826;2024-03-02T06:37:30;17.05;;;10.48;;
81154;SDS011;70631;50.436;7.826;2024-03-02T06:39:56;19.53;;;11.37;;
81154;SDS011;70631;50.436;7.826;2024-03-02T06:42:21;16.70;;;8.63;;
81154;SDS011;70631;50.436;7.826;2024-03-02T06:44:46;14.35;;;8.98;;
81154;SDS011;70631;50.436;7.826;2024-03-02T06:47:11;14.27;;;9.10;;
81154;SDS011;70631;50.436;7.826;2024-03-02T06:49:37;16.20;;;9.33;;
81154;SDS011;70631;50.436;7.826;2024-03-02T06:52:02;13.83;;;8.30;;
81154;SDS011;70631;50.436;7.826;2024-03-02T06:54:27;15.60;;;8.52;;
81154;SDS011;70631;50.436;7.826;2024-03-02T06:56:53;16.60;;;9.50;;
81154;SDS011;70631;50.436;7.826;2024-03-02T06:59:18;14.20;;;8.93;;
81154;SDS011;70631;50.436;7.826;2024-03-02T07:01:43;12.00;;;7.87;;
81154;SDS011;70631;50.436;7.826;2024-03-02T07:04:08;15.30;;;8.50;;
81154;SDS011;70631;50.436;7.826;2024-03-02T07:08:59;13.33;;;8.20;;
81154;SDS011;70631;50.436;7.826;2024-03-02T07:11:24;14.53;;;9.17;;
81154;SDS011;70631;50.436;7.826;2024-03-02T07:13:49;15.57;;;9.10;;
81154;SDS011;70631;50.436;7.826;2024-03-02T07:16:15;15.87;;;9.70;;
81154;SDS011;70631;50.436;7.826;2024-03-02T07:18:46;16.65;;;9.40;;
81154;SDS011;70631;50.436;7.826;2024-03-02T07:21:16;15.52;;;10.50;;
81154;SDS011;70631;50.436;7.826;2024-03-02T07:23:41;16.67;;;11.27;;
81154;SDS011;70631;50.436;7.826;2024-03-02T07:26:07;16.63;;;10.50;;
81154;SDS011;70631;50.436;7.826;2024-03-02T07:28:32;17.80;;;10.23;;
81154;SDS011;70631;50.436;7.826;2024-03-02T07:30:58;17.05;;;11.00;;
81154;SDS011;70631;50.436;7.826;2024-03-02T07:33:27;19.42;;;10.93;;
81154;SDS011;70631;50.436;7.826;2024-03-02T07:35:53;17.83;;;11.02;;
81154;SDS011;70631;50.436;7.826;2024-03-02T07:38:20;16.15;;;10.07;;
81154;SDS011;70631;50.436;7.826;2024-03-02T07:40:46;18.42;;;11.13;;
81154;SDS011;70631;50.436;7.826;2024-03-02T07:43:11;17.13;;;11.10;;
81154;SDS011;70631;50.436;7.826;2024-03-02T07:45:36;15.77;;;10.33;;
81154;SDS011;70631;50.436;7.826;2024-03-02T07:48:02;17.20;;;10.43;;
81154;SDS011;70631;50.436;7.826;2024-03-02T07:50:28;16.73;;;10.38;;
81154;SDS011;70631;50.436;7.826;2024-03-02T07:52:55;18.50;;;12.07;;
81154;SDS011;70631;50.436;7.826;2024-03-02T07:55:20;17.60;;;11.77;;
81154;SDS011;70631;50.436;7.826;2024-03-02T07:57:45;18.87;;;11.83;;
81154;SDS011;70631;50.436;7.826;2024-03-02T08:00:11;17.25;;;11.57;;
81154;SDS011;70631;50.436;7.826;2024-03-02T08:02:36;18.83;;;10.63;;
81154;SDS011;70631;50.436;7.826;2024-03-02T08:05:02;15.53;;;9.73;;
81154;SDS011;70631;50.436;7.826;2024-03-02T08:07:27;15.43;;;9.38;;
81154;SDS011;70631;50.436;7.826;2024-03-02T08:09:52;13.47;;;8.17;;
81154;SDS011;70631;50.436;7.826;2024-03-02T08:12:18;10.93;;;7.30;;
81154;SDS011;70631;50.436;7.826;2024-03-02T08:14:44;14.35;;;6.93;;
81154;SDS011;70631;50.436;7.826;2024-03-02T08:17:10;10.35;;;6.75;;
81154;SDS011;70631;50.436;7.826;2024-03-02T08:19:36;9.63;;;6.53;;
81154;SDS011;70631;50.436;7.826;2024-03-02T08:22:02;8.77;;;6.15;;
81154;SDS011;70631;50.436;7.826;2024-03-02T08:24:28;8.38;;;5.63;;
81154;SDS011;70631;50.436;7.826;2024-03-02T08:26:53;8.30;;;6.20;;
81154;SDS011;70631;50.436;7.826;2024-03-02T08:29:19;7.53;;;5.40;;
81154;SDS011;70631;50.436;7.826;2024-03-02T08:31:44;6.57;;;5.63;;
81154;SDS011;70631;50.436;7.826;2024-03-02T08:34:09;6.40;;;4.53;;
81154;SDS011;70631;50.436;7.826;2024-03-02T08:36:34;5.23;;;4.10;;
81154;SDS011;70631;50.436;7.826;2024-03-02T08:39:00;6.20;;;3.83;;
81154;SDS011;70631;50.436;7.826;2024-03-02T08:41:28;5.18;;;3.30;;
81154;SDS011;70631;50.436;7.826;2024-03-02T08:43:53;4.33;;;3.10;;
81154;SDS011;70631;50.436;7.826;2024-03-02T08:46:18;5.37;;;3.57;;
81154;SDS011;70631;50.436;7.826;2024-03-02T08:48:43;6.10;;;2.80;;
81154;SDS011;70631;50.436;7.826;2024-03-02T08:51:09;3.63;;;2.20;;
81154;SDS011;70631;50.436;7.826;2024-03-02T08:53:35;8.90;;;3.00;;
81154;SDS011;70631;50.436;7.826;2024-03-02T08:56:00;4.40;;;2.80;;
81154;SDS011;70631;50.436;7.826;2024-03-02T08:58:26;3.30;;;2.53;;
81154;SDS011;70631;50.436;7.826;2024-03-02T09:00:51;3.80;;;2.87;;
81154;SDS011;70631;50.436;7.826;2024-03-02T09:03:16;4.23;;;2.80;;
81154;SDS011;70631;50.436;7.826;2024-03-02T09:05:42;4.80;;;2.70;;
81154;SDS011;70631;50.436;7.826;2024-03-02T09:08:08;5.10;;;2.08;;
81154;SDS011;70631;50.436;7.826;2024-03-02T09:10:33;4.22;;;2.45;;
81154;SDS011;70631;50.436;7.826;2024-03-02T09:12:58;2.73;;;2.27;;
81154;SDS011;70631;50.436;7.826;2024-03-02T09:15:24;5.63;;;3.13;;
81154;SDS011;70631;50.436;7.826;2024-03-02T09:17:49;5.73;;;3.07;;
81154;SDS011;70631;50.436;7.826;2024-03-02T09:20:15;4.97;;;3.13;;
81154;SDS011;70631;50.436;7.826;2024-03-02T09:22:41;6.63;;;3.13;;
81154;SDS011;70631;50.436;7.826;2024-03-02T09:25:07;3.97;;;2.33;;
81154;SDS011;70631;50.436;7.826;2024-03-02T09:27:35;2.38;;;1.92;;
81154;SDS011;70631;50.436;7.826;2024-03-02T09:30:01;3.15;;;2.72;;
81154;SDS011;70631;50.436;7.826;2024-03-02T09:32:27;3.50;;;2.78;;
81154;SDS011;70631;50.436;7.826;2024-03-02T09:34:53;3.72;;;2.20;;
81154;SDS011;70631;50.436;7.826;2024-03-02T09:37:18;4.45;;;2.53;;
81154;SDS011;70631;50.436;7.826;2024-03-02T09:39:43;5.83;;;2.53;;
81154;SDS011;70631;50.436;7.826;2024-03-02T09:42:10;2.58;;;2.13;;
81154;SDS011;70631;50.436;7.826;2024-03-02T09:44:35;3.50;;;2.33;;
81154;SDS011;70631;50.436;7.826;2024-03-02T09:47:00;5.30;;;2.83;;
81154;SDS011;70631;50.436;7.826;2024-03-02T09:49:26;3.83;;;2.60;;
81154;SDS011;70631;50.436;7.826;2024-03-02T09:51:51;6.80;;;2.60;;
81154;SDS011;70631;50.436;7.826;2024-03-02T09:54:17;4.25;;;2.40;;
81154;SDS011;70631;50.436;7.826;2024-03-02T09:56:44;3.97;;;2.60;;
81154;SDS011;70631;50.436;7.826;2024-03-02T09:59:10;3.50;;;2.50;;
81154;SDS011;70631;50.436;7.826;2024-03-02T10:01:35;4.30;;;2.25;;
81154;SDS011;70631;50.436;7.826;2024-03-02T10:04:00;5.50;;;2.60;;
81154;SDS011;70631;50.436;7.826;2024-03-02T10:06:27;3.90;;;2.42;;
81154;SDS011;70631;50.436;7.826;2024-03-02T10:08:54;5.10;;;2.42;;
81154;SDS011;70631;50.436;7.826;2024-03-02T10:11:27;4.40;;;2.40;;
81154;SDS011;70631;50.436;7.826;2024-03-02T10:14:06;2.47;;;2.20;;
81154;SDS011;70631;50.436;7.826;2024-03-02T10:16:33;3.05;;;1.67;;
81154;SDS011;70631;50.436;7.826;2024-03-02T10:21:41;2.28;;;1.48;;
81154;SDS011;70631;50.436;7.826;2024-03-02T10:24:07;2.95;;;1.17;;
81154;SDS011;70631;50.436;7.826;2024-03-02T10:26:32;1.25;;;1.10;;
81154;SDS011;70631;50.436;7.826;2024-03-02T10:28:58;1.47;;;1.20;;
81154;SDS011;70631;50.436;7.826;2024-03-02T10:31:24;1.70;;;1.10;;
81154;SDS011;70631;50.436;7.826;2024-03-02T10:33:52;2.97;;;1.40;;
81154;SDS011;70631;50.436;7.826;2024-03-02T10:36:19;1.35;;;1.20;;
81154;SDS011;70631;50.436;7.826;2024-03-02T10:38:44;2.35;;;1.40;;
81154;SDS011;70631;50.436;7.826;2024-03-02T10:41:11;1.48;;;1.38;;
81154;SDS011;70631;50.436;7.826;2024-03-02T10:43:37;3.58;;;1.17;;
81154;SDS011;70631;50.436;7.826;2024-03-02T10:46:02;1.80;;;1.05;;
81154;SDS011;70631;50.436;7.826;2024-03-02T10:48:28;1.02;;;0.93;;
81154;SDS011;70631;50.436;7.826;2024-03-02T10:50:55;2.20;;;1.52;;
81154;SDS011;70631;50.436;7.826;2024-03-02T10:53:22;2.22;;;0.85;;
81154;SDS011;70631;50.436;7.826;2024-03-02T10:55:47;2.77;;;1.17;;
81154;SDS011;70631;50.436;7.826;2024-03-02T10:58:22;1.38;;;1.00;;
81154;SDS011;70631;50.436;7.826;2024-03-02T11:00:51;1.33;;;1.10;;
81154;SDS011;70631;50.436;7.826;2024-03-02T11:03:17;6.43;;;1.50;;
81154;SDS011;70631;50.436;7.826;2024-03-02T11:05:44;1.67;;;1.10;;
81154;SDS011;70631;50.436;7.826;2024-03-02T11:08:13;1.65;;;1.17;;
81154;SDS011;70631;50.436;7.826;2024-03-02T11:10:50;2.15;;;1.00;;
81154;SDS011;70631;50.436;7.826;2024-03-02T11:13:22;1.38;;;1.15;;
81154;SDS011;70631;50.436;7.826;2024-03-02T11:15:54;1.30;;;1.00;;
81154;SDS011;70631;50.436;7.826;2024-03-02T11:18:24;0.75;;;0.55;;
81154;SDS011;70631;50.436;7.826;2024-03-02T11:20:50;1.00;;;0.75;;
81154;SDS011;70631;50.436;7.826;2024-03-02T11:23:16;3.13;;;0.90;;
81154;SDS011;70631;50.436;7.826;2024-03-02T11:25:41;1.07;;;0.60;;
81154;SDS011;70631;50.436;7.826;2024-03-02T11:28:07;0.90;;;0.77;;
81154;SDS011;70631;50.436;7.826;2024-03-02T11:33:04;1.65;;;0.60;;
81154;SDS011;70631;50.436;7.826;2024-03-02T11:35:33;0.75;;;0.70;;
81154;SDS011;70631;50.436;7.826;2024-03-02T11:38:04;1.58;;;1.00;;
81154;SDS011;70631;50.436;7.826;2024-03-02T11:40:32;4.35;;;1.00;;
81154;SDS011;70631;50.436;7.826;2024-03-02T11:42:58;2.38;;;0.90;;
81154;SDS011;70631;50.436;7.826;2024-03-02T11:45:25;1.60;;;1.00;;
81154;SDS011;70631;50.436;7.826;2024-03-02T11:47:51;2.83;;;1.30;;
81154;SDS011;70631;50.436;7.826;2024-03-02T11:50:34;1.77;;;1.00;;
81154;SDS011;70631;50.436;7.826;2024-03-02T11:53:06;1.80;;;1.00;;
81154;SDS011;70631;50.436;7.826;2024-03-02T11:55:37;2.92;;;1.00;;
81154;SDS011;70631;50.436;7.826;2024-03-02T11:58:04;0.85;;;0.77;;
81154;SDS011;70631;50.436;7.826;2024-03-02T12:00:30;2.72;;;0.90;;
81154;SDS011;70631;50.436;7.826;2024-03-02T12:03:02;1.05;;;0.73;;
81154;SDS011;70631;50.436;7.826;2024-03-02T12:05:30;1.38;;;0.52;;
81154;SDS011;70631;50.436;7.826;2024-03-02T12:07:59;0.75;;;0.68;;
81154;SDS011;70631;50.436;7.826;2024-03-02T12:10:26;1.02;;;0.77;;
81154;SDS011;70631;50.436;7.826;2024-03-02T12:12:58;3.28;;;0.82;;
81154;SDS011;70631;50.436;7.826;2024-03-02T12:15:25;0.75;;;0.60;;
81154;SDS011;70631;50.436;7.826;2024-03-02T12:17:53;0.73;;;0.57;;
81154;SDS011;70631;50.436;7.826;2024-03-02T12:20:22;0.82;;;0.60;;
81154;SDS011;70631;50.436;7.826;2024-03-02T12:22:51;1.10;;;0.60;;
81154;SDS011;70631;50.436;7.826;2024-03-02T12:25:18;1.00;;;0.80;;
81154;SDS011;70631;50.436;7.826;2024-03-02T12:27:45;2.47;;;0.68;;
81154;SDS011;70631;50.436;7.826;2024-03-02T12:30:11;0.95;;;0.75;;
81154;SDS011;70631;50.436;7.826;2024-03-02T12:32:37;1.58;;;0.88;;
81154;SDS011;70631;50.436;7.826;2024-03-02T12:35:04;1.27;;;0.63;;
81154;SDS011;70631;50.436;7.826;2024-03-02T12:37:30;1.48;;;0.70;;
81154;SDS011;70631;50.436;7.826;2024-03-02T12:39:55;0.60;;;0.50;;
81154;SDS011;70631;50.436;7.826;2024-03-02T12:42:21;1.97;;;0.47;;
81154;SDS011;70631;50.436;7.826;2024-03-02T12:44:46;1.17;;;0.45;;
81154;SDS011;70631;50.436;7.826;2024-03-02T12:47:12;0.70;;;0.40;;
81154;SDS011;70631;50.436;7.826;2024-03-02T12:49:39;1.00;;;0.52;;
81154;SDS011;70631;50.436;7.826;2024-03-02T12:52:05;1.83;;;0.60;;
81154;SDS011;70631;50.436;7.826;2024-03-02T12:54:30;1.17;;;0.70;;
81154;SDS011;70631;50.436;7.826;2024-03-02T12:56:56;1.42;;;0.43;;
81154;SDS011;70631;50.436;7.826;2024-03-02T12:59:23;4.63;;;0.77;;
81154;SDS011;70631;50.436;7.826;2024-03-02T13:01:51;5.38;;;1.00;;
81154;SDS011;70631;50.436;7.826;2024-03-02T13:04:21;4.43;;;0.73;;
81154;SDS011;70631;50.436;7.826;2024-03-02T13:06:48;2.90;;;0.65;;
81154;SDS011;70631;50.436;7.826;2024-03-02T13:09:14;2.00;;;1.02;;
81154;SDS011;70631;50.436;7.826;2024-03-02T13:11:41;3.15;;;0.88;;
81154;SDS011;70631;50.436;7.826;2024-03-02T13:14:07;1.10;;;0.60;;
81154;SDS011;70631;50.436;7.826;2024-03-02T13:16:37;0.40;;;0.20;;
81154;SDS011;70631;50.436;7.826;2024-03-02T13:19:04;1.48;;;0.50;;
81154;SDS011;70631;50.436;7.826;2024-03-02T13:21:32;1.45;;;0.50;;
81154;SDS011;70631;50.436;7.826;2024-03-02T13:23:58;1.27;;;0.53;;
81154;SDS011;70631;50.436;7.826;2024-03-02T13:26:23;0.83;;;0.43;;
81154;SDS011;70631;50.436;7.826;2024-03-02T13:28:48;0.40;;;0.33;;
81154;SDS011;70631;50.436;7.826;2024-03-02T13:31:13;1.80;;;0.70;;
81154;SDS011;70631;50.436;7.826;2024-03-02T13:33:39;1.37;;;0.43;;
81154;SDS011;70631;50.436;7.826;2024-03-02T13:36:04;0.20;;;0.20;;
81154;SDS011;70631;50.436;7.826;2024-03-02T13:38:29;0.40;;;0.30;;
81154;SDS011;70631;50.436;7.826;2024-03-02T13:40:55;2.80;;;0.70;;
81154;SDS011;70631;50.436;7.826;2024-03-02T13:43:20;0.87;;;0.53;;
81154;SDS011;70631;50.436;7.826;2024-03-02T13:45:45;1.07;;;0.97;;
81154;SDS011;70631;50.436;7.826;2024-03-02T13:48:10;0.80;;;0.70;;
81154;SDS011;70631;50.436;7.826;2024-03-02T13:50:36;1.75;;;0.55;;
81154;SDS011;70631;50.436;7.826;2024-03-02T13:53:01;1.27;;;0.70;;
81154;SDS011;70631;50.436;7.826;2024-03-02T13:55:28;1.13;;;0.47;;
81154;SDS011;70631;50.436;7.826;2024-03-02T13:57:53;0.77;;;0.47;;
81154;SDS011;70631;50.436;7.826;2024-03-02T14:00:18;0.83;;;0.40;;
81154;SDS011;70631;50.436;7.826;2024-03-02T14:02:45;0.82;;;0.28;;
81154;SDS011;70631;50.436;7.826;2024-03-02T14:05:10;0.70;;;0.60;;
81154;SDS011;70631;50.436;7.826;2024-03-02T14:07:37;0.60;;;0.25;;
81154;SDS011;70631;50.436;7.826;2024-03-02T14:10:03;0.40;;;0.40;;
81154;SDS011;70631;50.436;7.826;2024-03-02T14:12:29;0.40;;;0.25;;
81154;SDS011;70631;50.436;7.826;2024-03-02T14:14:54;1.03;;;0.50;;
81154;SDS011;70631;50.436;7.826;2024-03-02T14:17:23;0.82;;;0.30;;
81154;SDS011;70631;50.436;7.826;2024-03-02T14:19:48;0.50;;;0.47;;
81154;SDS011;70631;50.436;7.826;2024-03-02T14:22:13;1.47;;;0.40;;
81154;SDS011;70631;50.436;7.826;2024-03-02T14:24:42;0.65;;;0.60;;
81154;SDS011;70631;50.436;7.826;2024-03-02T14:27:08;0.98;;;0.40;;
81154;SDS011;70631;50.436;7.826;2024-03-02T14:29:33;1.00;;;0.50;;
81154;SDS011;70631;50.436;7.826;2024-03-02T14:32:01;0.55;;;0.40;;
81154;SDS011;70631;50.436;7.826;2024-03-02T14:34:26;0.68;;;0.40;;
81154;SDS011;70631;50.436;7.826;2024-03-02T14:36:52;2.17;;;0.70;;
81154;SDS011;70631;50.436;7.826;2024-03-02T14:39:17;1.53;;;0.70;;
81154;SDS011;70631;50.436;7.826;2024-03-02T14:41:44;0.63;;;0.50;;
81154;SDS011;70631;50.436;7.826;2024-03-02T14:44:09;1.43;;;0.47;;
81154;SDS011;70631;50.436;7.826;2024-03-02T14:46:35;1.55;;;0.75;;
81154;SDS011;70631;50.436;7.826;2024-03-02T14:49:00;1.50;;;0.50;;
81154;SDS011;70631;50.436;7.826;2024-03-02T14:51:26;1.00;;;0.60;;
81154;SDS011;70631;50.436;7.826;2024-03-02T14:53:51;1.07;;;0.60;;
81154;SDS011;70631;50.436;7.826;2024-03-02T14:56:16;2.13;;;0.65;;
81154;SDS011;70631;50.436;7.826;2024-03-02T14:58:42;0.87;;;0.60;;
81154;SDS011;70631;50.436;7.826;2024-03-02T15:01:07;1.63;;;0.70;;
81154;SDS011;70631;50.436;7.826;2024-03-02T15:03:33;1.90;;;0.60;;
81154;SDS011;70631;50.436;7.826;2024-03-02T15:06:00;0.88;;;0.70;;
81154;SDS011;70631;50.436;7.826;2024-03-02T15:08:25;1.23;;;0.80;;
81154;SDS011;70631;50.436;7.826;2024-03-02T15:10:50;1.07;;;0.60;;
81154;SDS011;70631;50.436;7.826;2024-03-02T15:13:16;1.90;;;0.80;;
81154;SDS011;70631;50.436;7.826;2024-03-02T15:15:42;4.28;;;0.70;;
81154;SDS011;70631;50.436;7.826;2024-03-02T15:18:07;0.67;;;0.50;;
81154;SDS011;70631;50.436;7.826;2024-03-02T15:20:33;0.68;;;0.43;;
81154;SDS011;70631;50.436;7.826;2024-03-02T15:22:59;0.77;;;0.55;;